sensor_id;sensor_type;location;lat;lon;timestamp;temperature;humidity
21570;DHT22;57598;50.888;4.746;2022-08-19T00:01:39;20.90;99.90
21570;DHT22;57598;50.888;4.746;2022-08-19T00:04:09;20.90;99.90
21570;DHT22;57598;50.888;4.746;2022-08-19T00:06:37;20.80;99.90
21570;DHT22;57598;50.888;4.746;2022-08-19T00:09:08;20.80;99.90
21570;DHT22;57598;50.888;4.746;2022-08-19T00:11:36;20.80;99.90
21570;DHT22;57598;50.888;4.746;2022-08-19T00:14:05;20.90;99.90
21570;DHT22;57598;50.888;4.746;2022-08-19T00:16:33;20.70;99.90
21570;DHT22;57598;50.888;4.746;2022-08-19T00:19:00;20.70;99.90
21570;DHT22;57598;50.888;4.746;2022-08-19T00:21:27;20.70;99.90
21570;DHT22;57598;50.888;4.746;2022-08-19T00:23:55;20.70;99.90
21570;DHT22;57598;50.888;4.746;2022-08-19T00:26:25;20.70;99.90
21570;DHT22;57598;50.888;4.746;2022-08-19T00:28:52;20.70;99.90
21570;DHT22;57598;50.888;4.746;2022-08-19T00:31:19;20.70;99.90
21570;DHT22;57598;50.888;4.746;2022-08-19T00:33:46;20.70;99.90
21570;DHT22;57598;50.888;4.746;2022-08-19T00:36:16;20.70;99.90
21570;DHT22;57598;50.888;4.746;2022-08-19T00:38:44;20.60;99.90
21570;DHT22;57598;50.888;4.746;2022-08-19T00:41:13;20.60;99.90
21570;DHT22;57598;50.888;4.746;2022-08-19T00:43:43;20.70;99.90
21570;DHT22;57598;50.888;4.746;2022-08-19T00:46:10;20.60;99.90
21570;DHT22;57598;50.888;4.746;2022-08-19T00:48:37;20.60;99.90
21570;DHT22;57598;50.888;4.746;2022-08-19T00:51:05;20.70;99.90
21570;DHT22;57598;50.888;4.746;2022-08-19T00:53:32;20.70;99.90
21570;DHT22;57598;50.888;4.746;2022-08-19T00:56:01;20.70;99.90
21570;DHT22;57598;50.888;4.746;2022-08-19T00:58:33;20.80;99.90
21570;DHT22;57598;50.888;4.746;2022-08-19T01:01:03;20.80;99.90
21570;DHT22;57598;50.888;4.746;2022-08-19T01:03:31;20.70;99.90
21570;DHT22;57598;50.888;4.746;2022-08-19T01:05:58;20.70;99.90
21570;DHT22;57598;50.888;4.746;2022-08-19T01:08:25;20.70;99.90
21570;DHT22;57598;50.888;4.746;2022-08-19T01:10:55;20.60;99.90
21570;DHT22;57598;50.888;4.746;2022-08-19T01:13:25;20.60;99.90
21570;DHT22;57598;50.888;4.746;2022-08-19T01:15:57;20.60;99.90
21570;DHT22;57598;50.888;4.746;2022-08-19T01:18:27;20.60;99.90
21570;DHT22;57598;50.888;4.746;2022-08-19T01:20:58;20.60;99.90
21570;DHT22;57598;50.888;4.746;2022-08-19T01:23:29;20.50;99.90
21570;DHT22;57598;50.888;4.746;2022-08-19T01:26:11;20.60;99.90
21570;DHT22;57598;50.888;4.746;2022-08-19T01:28:40;20.60;99.90
21570;DHT22;57598;50.888;4.746;2022-08-19T01:31:13;20.60;99.90
21570;DHT22;57598;50.888;4.746;2022-08-19T01:33:40;20.50;99.90
21570;DHT22;57598;50.888;4.746;2022-08-19T01:36:09;20.50;99.90
21570;DHT22;57598;50.888;4.746;2022-08-19T01:38:39;20.40;99.90
21570;DHT22;57598;50.888;4.746;2022-08-19T01:41:07;20.50;99.90
21570;DHT22;57598;50.888;4.746;2022-08-19T01:43:35;20.40;99.90
21570;DHT22;57598;50.888;4.746;2022-08-19T01:46:02;20.50;99.90
21570;DHT22;57598;50.888;4.746;2022-08-19T01:48:33;20.50;99.90
21570;DHT22;57598;50.888;4.746;2022-08-19T01:51:00;20.50;99.90
21570;DHT22;57598;50.888;4.746;2022-08-19T01:53:28;20.50;99.90
21570;DHT22;57598;50.888;4.746;2022-08-19T01:55:57;20.50;99.90
21570;DHT22;57598;50.888;4.746;2022-08-19T01:58:27;20.50;99.90
21570;DHT22;57598;50.888;4.746;2022-08-19T02:00:55;20.50;99.90
21570;DHT22;57598;50.888;4.746;2022-08-19T02:03:23;20.50;99.90
21570;DHT22;57598;50.888;4.746;2022-08-19T02:05:54;20.40;99.90
21570;DHT22;57598;50.888;4.746;2022-08-19T02:08:22;20.40;99.90
21570;DHT22;57598;50.888;4.746;2022-08-19T02:10:49;20.30;99.90
21570;DHT22;57598;50.888;4.746;2022-08-19T02:13:17;20.30;99.90
21570;DHT22;57598;50.888;4.746;2022-08-19T02:15:45;20.30;99.90
21570;DHT22;57598;50.888;4.746;2022-08-19T02:18:12;20.30;99.90
21570;DHT22;57598;50.888;4.746;2022-08-19T02:20:41;20.30;99.90
21570;DHT22;57598;50.888;4.746;2022-08-19T02:23:09;20.20;99.90
21570;DHT22;57598;50.888;4.746;2022-08-19T02:25:37;20.30;99.90
21570;DHT22;57598;50.888;4.746;2022-08-19T02:28:04;20.30;99.90
21570;DHT22;57598;50.888;4.746;2022-08-19T02:30:33;20.20;99.90
21570;DHT22;57598;50.888;4.746;2022-08-19T02:33:00;20.20;99.90
21570;DHT22;57598;50.888;4.746;2022-08-19T02:35:27;20.10;99.90
21570;DHT22;57598;50.888;4.746;2022-08-19T02:37:54;20.20;99.90
21570;DHT22;57598;50.888;4.746;2022-08-19T02:40:38;20.10;99.90
21570;DHT22;57598;50.888;4.746;2022-08-19T02:43:07;20.10;99.90
21570;DHT22;57598;50.888;4.746;2022-08-19T02:45:38;20.00;99.90
21570;DHT22;57598;50.888;4.746;2022-08-19T02:48:06;20.00;99.90
21570;DHT22;57598;50.888;4.746;2022-08-19T02:50:33;20.00;99.90
21570;DHT22;57598;50.888;4.746;2022-08-19T02:53:00;19.90;99.90
21570;DHT22;57598;50.888;4.746;2022-08-19T02:55:27;19.90;99.90
21570;DHT22;57598;50.888;4.746;2022-08-19T02:57:54;19.80;99.90
21570;DHT22;57598;50.888;4.746;2022-08-19T03:00:22;19.70;99.90
21570;DHT22;57598;50.888;4.746;2022-08-19T03:02:51;19.70;99.90
21570;DHT22;57598;50.888;4.746;2022-08-19T03:05:18;19.80;99.90
21570;DHT22;57598;50.888;4.746;2022-08-19T03:07:45;19.70;99.90
21570;DHT22;57598;50.888;4.746;2022-08-19T03:10:13;19.70;99.90
21570;DHT22;57598;50.888;4.746;2022-08-19T03:12:40;19.60;99.90
21570;DHT22;57598;50.888;4.746;2022-08-19T03:15:08;19.60;99.90
21570;DHT22;57598;50.888;4.746;2022-08-19T03:17:35;19.40;99.90
21570;DHT22;57598;50.888;4.746;2022-08-19T03:20:05;19.40;99.90
21570;DHT22;57598;50.888;4.746;2022-08-19T03:22:32;19.40;99.90
21570;DHT22;57598;50.888;4.746;2022-08-19T03:24:59;19.30;99.90
21570;DHT22;57598;50.888;4.746;2022-08-19T03:27:26;19.40;99.90
21570;DHT22;57598;50.888;4.746;2022-08-19T03:29:53;19.30;99.90
21570;DHT22;57598;50.888;4.746;2022-08-19T03:32:20;19.10;99.90
21570;DHT22;57598;50.888;4.746;2022-08-19T03:34:47;19.20;99.90
21570;DHT22;57598;50.888;4.746;2022-08-19T03:37:16;19.20;99.90
21570;DHT22;57598;50.888;4.746;2022-08-19T03:39:43;19.20;99.90
21570;DHT22;57598;50.888;4.746;2022-08-19T03:42:10;19.20;99.90
21570;DHT22;57598;50.888;4.746;2022-08-19T03:44:38;19.20;99.90
21570;DHT22;57598;50.888;4.746;2022-08-19T03:47:05;19.20;99.90
21570;DHT22;57598;50.888;4.746;2022-08-19T03:49:32;19.20;99.90
21570;DHT22;57598;50.888;4.746;2022-08-19T03:52:01;19.20;99.90
21570;DHT22;57598;50.888;4.746;2022-08-19T03:54:29;19.00;99.90
21570;DHT22;57598;50.888;4.746;2022-08-19T03:56:57;19.00;99.90
21570;DHT22;57598;50.888;4.746;2022-08-19T03:59:26;18.90;99.90
21570;DHT22;57598;50.888;4.746;2022-08-19T04:01:55;18.90;99.90
21570;DHT22;57598;50.888;4.746;2022-08-19T04:04:23;18.90;99.90
21570;DHT22;57598;50.888;4.746;2022-08-19T04:06:50;18.90;99.90
21570;DHT22;57598;50.888;4.746;2022-08-19T04:09:18;18.90;99.90
21570;DHT22;57598;50.888;4.746;2022-08-19T04:11:48;18.80;99.90
21570;DHT22;57598;50.888;4.746;2022-08-19T04:14:18;18.80;99.90
21570;DHT22;57598;50.888;4.746;2022-08-19T04:16:46;18.70;99.90
21570;DHT22;57598;50.888;4.746;2022-08-19T04:19:15;18.70;99.90
21570;DHT22;57598;50.888;4.746;2022-08-19T04:21:44;18.70;99.90
21570;DHT22;57598;50.888;4.746;2022-08-19T04:24:12;18.70;99.90
21570;DHT22;57598;50.888;4.746;2022-08-19T04:26:40;18.60;99.90
21570;DHT22;57598;50.888;4.746;2022-08-19T04:29:10;18.50;99.90
21570;DHT22;57598;50.888;4.746;2022-08-19T04:31:39;18.60;99.90
21570;DHT22;57598;50.888;4.746;2022-08-19T04:34:08;18.60;99.90
21570;DHT22;57598;50.888;4.746;2022-08-19T04:36:38;18.50;99.90
21570;DHT22;57598;50.888;4.746;2022-08-19T04:39:10;18.50;99.90
21570;DHT22;57598;50.888;4.746;2022-08-19T04:41:37;18.50;99.90
21570;DHT22;57598;50.888;4.746;2022-08-19T04:44:23;18.50;99.90
21570;DHT22;57598;50.888;4.746;2022-08-19T04:46:51;18.50;99.90
21570;DHT22;57598;50.888;4.746;2022-08-19T04:49:20;18.60;99.90
21570;DHT22;57598;50.888;4.746;2022-08-19T04:51:49;18.60;99.90
21570;DHT22;57598;50.888;4.746;2022-08-19T04:54:18;18.50;99.90
21570;DHT22;57598;50.888;4.746;2022-08-19T04:56:48;18.40;99.90
21570;DHT22;57598;50.888;4.746;2022-08-19T04:59:16;18.40;99.90
21570;DHT22;57598;50.888;4.746;2022-08-19T05:01:46;18.40;99.90
21570;DHT22;57598;50.888;4.746;2022-08-19T05:04:17;18.50;99.90
21570;DHT22;57598;50.888;4.746;2022-08-19T05:06:44;18.40;99.90
21570;DHT22;57598;50.888;4.746;2022-08-19T05:09:13;18.50;99.90
21570;DHT22;57598;50.888;4.746;2022-08-19T05:11:40;18.50;99.90
21570;DHT22;57598;50.888;4.746;2022-08-19T05:14:08;18.40;99.90
21570;DHT22;57598;50.888;4.746;2022-08-19T05:16:35;18.50;99.90
21570;DHT22;57598;50.888;4.746;2022-08-19T05:19:03;18.30;99.90
21570;DHT22;57598;50.888;4.746;2022-08-19T05:21:48;18.30;99.90
21570;DHT22;57598;50.888;4.746;2022-08-19T05:24:32;18.30;99.90
21570;DHT22;57598;50.888;4.746;2022-08-19T05:27:00;18.30;99.90
21570;DHT22;57598;50.888;4.746;2022-08-19T05:29:29;18.30;99.90
21570;DHT22;57598;50.888;4.746;2022-08-19T05:31:57;18.30;99.90
21570;DHT22;57598;50.888;4.746;2022-08-19T05:34:26;18.40;99.90
21570;DHT22;57598;50.888;4.746;2022-08-19T05:36:58;18.30;99.90
21570;DHT22;57598;50.888;4.746;2022-08-19T05:39:26;18.40;99.90
21570;DHT22;57598;50.888;4.746;2022-08-19T05:41:56;18.40;99.90
21570;DHT22;57598;50.888;4.746;2022-08-19T05:44:24;18.40;99.90
21570;DHT22;57598;50.888;4.746;2022-08-19T05:46:52;18.50;99.90
21570;DHT22;57598;50.888;4.746;2022-08-19T05:49:22;18.50;99.90
21570;DHT22;57598;50.888;4.746;2022-08-19T05:51:50;18.60;99.90
21570;DHT22;57598;50.888;4.746;2022-08-19T05:54:18;18.50;99.90
21570;DHT22;57598;50.888;4.746;2022-08-19T05:56:45;18.50;99.90
21570;DHT22;57598;50.888;4.746;2022-08-19T05:59:14;18.50;99.90
21570;DHT22;57598;50.888;4.746;2022-08-19T06:01:44;18.60;99.90
21570;DHT22;57598;50.888;4.746;2022-08-19T06:04:12;18.70;99.90
21570;DHT22;57598;50.888;4.746;2022-08-19T06:06:40;18.70;99.90
21570;DHT22;57598;50.888;4.746;2022-08-19T06:09:08;18.80;99.90
21570;DHT22;57598;50.888;4.746;2022-08-19T06:11:38;18.90;99.90
21570;DHT22;57598;50.888;4.746;2022-08-19T06:14:09;18.80;99.90
21570;DHT22;57598;50.888;4.746;2022-08-19T06:16:38;18.70;99.90
21570;DHT22;57598;50.888;4.746;2022-08-19T06:19:09;18.70;99.90
21570;DHT22;57598;50.888;4.746;2022-08-19T06:21:38;18.90;99.90
21570;DHT22;57598;50.888;4.746;2022-08-19T06:24:06;19.10;99.90
21570;DHT22;57598;50.888;4.746;2022-08-19T06:26:36;19.20;99.90
21570;DHT22;57598;50.888;4.746;2022-08-19T06:29:04;19.20;99.90
21570;DHT22;57598;50.888;4.746;2022-08-19T06:31:33;19.10;99.90
21570;DHT22;57598;50.888;4.746;2022-08-19T06:34:00;19.00;99.90
21570;DHT22;57598;50.888;4.746;2022-08-19T06:36:31;19.00;99.90
21570;DHT22;57598;50.888;4.746;2022-08-19T06:39:00;18.90;99.90
21570;DHT22;57598;50.888;4.746;2022-08-19T06:41:28;19.00;99.90
21570;DHT22;57598;50.888;4.746;2022-08-19T06:43:57;19.20;99.90
21570;DHT22;57598;50.888;4.746;2022-08-19T06:46:24;19.40;99.90
21570;DHT22;57598;50.888;4.746;2022-08-19T06:48:52;19.60;99.90
21570;DHT22;57598;50.888;4.746;2022-08-19T06:51:20;19.70;99.90
21570;DHT22;57598;50.888;4.746;2022-08-19T06:53:48;19.80;99.90
21570;DHT22;57598;50.888;4.746;2022-08-19T06:56:17;19.90;99.90
21570;DHT22;57598;50.888;4.746;2022-08-19T06:58:44;19.90;99.90
21570;DHT22;57598;50.888;4.746;2022-08-19T07:01:13;20.00;99.90
21570;DHT22;57598;50.888;4.746;2022-08-19T07:03:40;20.00;99.90
21570;DHT22;57598;50.888;4.746;2022-08-19T07:06:09;20.20;99.90
21570;DHT22;57598;50.888;4.746;2022-08-19T07:08:37;20.40;99.90
21570;DHT22;57598;50.888;4.746;2022-08-19T07:11:07;20.30;99.90
21570;DHT22;57598;50.888;4.746;2022-08-19T07:13:34;20.40;99.90
21570;DHT22;57598;50.888;4.746;2022-08-19T07:16:03;20.60;99.90
21570;DHT22;57598;50.888;4.746;2022-08-19T07:18:33;20.80;99.90
21570;DHT22;57598;50.888;4.746;2022-08-19T07:21:05;21.40;99.90
21570;DHT22;57598;50.888;4.746;2022-08-19T07:23:33;21.50;99.90
21570;DHT22;57598;50.888;4.746;2022-08-19T07:26:05;21.80;99.90
21570;DHT22;57598;50.888;4.746;2022-08-19T07:28:33;22.00;99.90
21570;DHT22;57598;50.888;4.746;2022-08-19T07:31:00;22.30;99.90
21570;DHT22;57598;50.888;4.746;2022-08-19T07:33:29;22.70;99.90
21570;DHT22;57598;50.888;4.746;2022-08-19T07:35:59;22.80;99.90
21570;DHT22;57598;50.888;4.746;2022-08-19T07:38:26;23.10;99.90
21570;DHT22;57598;50.888;4.746;2022-08-19T07:40:53;23.20;99.90
21570;DHT22;57598;50.888;4.746;2022-08-19T07:43:20;23.20;99.90
21570;DHT22;57598;50.888;4.746;2022-08-19T07:45:51;23.30;99.90
21570;DHT22;57598;50.888;4.746;2022-08-19T07:48:18;23.70;99.90
21570;DHT22;57598;50.888;4.746;2022-08-19T07:50:48;23.70;99.90
21570;DHT22;57598;50.888;4.746;2022-08-19T07:53:17;24.00;99.90
21570;DHT22;57598;50.888;4.746;2022-08-19T07:55:44;23.90;99.90
21570;DHT22;57598;50.888;4.746;2022-08-19T07:58:13;23.70;99.90
21570;DHT22;57598;50.888;4.746;2022-08-19T08:00:41;23.40;99.90
21570;DHT22;57598;50.888;4.746;2022-08-19T08:03:08;23.70;99.90
21570;DHT22;57598;50.888;4.746;2022-08-19T08:05:35;23.80;99.90
21570;DHT22;57598;50.888;4.746;2022-08-19T08:08:21;24.50;99.90
21570;DHT22;57598;50.888;4.746;2022-08-19T08:11:02;24.80;99.90
21570;DHT22;57598;50.888;4.746;2022-08-19T08:13:29;24.50;99.90
21570;DHT22;57598;50.888;4.746;2022-08-19T08:15:56;24.40;99.90
21570;DHT22;57598;50.888;4.746;2022-08-19T08:18:24;24.40;99.90
21570;DHT22;57598;50.888;4.746;2022-08-19T08:20:51;24.40;99.90
21570;DHT22;57598;50.888;4.746;2022-08-19T08:23:18;24.10;99.90
21570;DHT22;57598;50.888;4.746;2022-08-19T08:25:54;23.80;99.90
21570;DHT22;57598;50.888;4.746;2022-08-19T08:28:22;24.10;99.90
21570;DHT22;57598;50.888;4.746;2022-08-19T08:30:50;24.00;99.90
21570;DHT22;57598;50.888;4.746;2022-08-19T08:33:19;24.60;99.90
21570;DHT22;57598;50.888;4.746;2022-08-19T08:35:46;24.90;99.90
21570;DHT22;57598;50.888;4.746;2022-08-19T08:38:14;24.80;99.90
21570;DHT22;57598;50.888;4.746;2022-08-19T08:40:46;24.30;99.90
21570;DHT22;57598;50.888;4.746;2022-08-19T08:43:23;24.60;99.90
21570;DHT22;57598;50.888;4.746;2022-08-19T08:45:55;24.40;99.90
21570;DHT22;57598;50.888;4.746;2022-08-19T08:48:32;24.40;99.90
21570;DHT22;57598;50.888;4.746;2022-08-19T08:51:03;24.40;99.90
21570;DHT22;57598;50.888;4.746;2022-08-19T08:53:32;24.60;99.90
21570;DHT22;57598;50.888;4.746;2022-08-19T08:56:02;24.90;99.90
21570;DHT22;57598;50.888;4.746;2022-08-19T08:58:39;25.60;99.90
21570;DHT22;57598;50.888;4.746;2022-08-19T09:01:10;25.90;99.90
21570;DHT22;57598;50.888;4.746;2022-08-19T09:03:39;26.10;99.90
21570;DHT22;57598;50.888;4.746;2022-08-19T09:06:11;25.90;99.90
21570;DHT22;57598;50.888;4.746;2022-08-19T09:08:45;25.80;99.90
21570;DHT22;57598;50.888;4.746;2022-08-19T09:11:22;25.30;99.90
21570;DHT22;57598;50.888;4.746;2022-08-19T09:14:02;25.10;99.90
21570;DHT22;57598;50.888;4.746;2022-08-19T09:16:30;25.60;99.90
21570;DHT22;57598;50.888;4.746;2022-08-19T09:19:03;26.30;99.90
21570;DHT22;57598;50.888;4.746;2022-08-19T09:21:30;26.30;99.90
21570;DHT22;57598;50.888;4.746;2022-08-19T09:23:57;25.70;99.90
21570;DHT22;57598;50.888;4.746;2022-08-19T09:26:25;25.50;99.90
21570;DHT22;57598;50.888;4.746;2022-08-19T09:28:54;25.00;99.90
21570;DHT22;57598;50.888;4.746;2022-08-19T09:31:24;24.60;99.90
21570;DHT22;57598;50.888;4.746;2022-08-19T09:33:53;24.90;99.90
21570;DHT22;57598;50.888;4.746;2022-08-19T09:36:23;25.50;99.90
21570;DHT22;57598;50.888;4.746;2022-08-19T09:38:51;25.20;99.90
21570;DHT22;57598;50.888;4.746;2022-08-19T09:41:20;25.00;99.90
21570;DHT22;57598;50.888;4.746;2022-08-19T09:43:49;24.70;99.90
21570;DHT22;57598;50.888;4.746;2022-08-19T09:46:19;24.60;99.90
21570;DHT22;57598;50.888;4.746;2022-08-19T09:48:48;24.70;99.90
21570;DHT22;57598;50.888;4.746;2022-08-19T09:51:18;24.70;99.90
21570;DHT22;57598;50.888;4.746;2022-08-19T09:53:46;24.80;99.90
21570;DHT22;57598;50.888;4.746;2022-08-19T09:56:16;25.00;99.90
21570;DHT22;57598;50.888;4.746;2022-08-19T09:58:44;25.30;99.90
21570;DHT22;57598;50.888;4.746;2022-08-19T10:01:18;25.30;99.90
21570;DHT22;57598;50.888;4.746;2022-08-19T10:03:48;25.30;99.90
21570;DHT22;57598;50.888;4.746;2022-08-19T10:06:17;25.20;99.90
21570;DHT22;57598;50.888;4.746;2022-08-19T10:08:45;25.50;99.90
21570;DHT22;57598;50.888;4.746;2022-08-19T10:11:13;25.60;99.90
21570;DHT22;57598;50.888;4.746;2022-08-19T10:13:43;25.40;99.90
21570;DHT22;57598;50.888;4.746;2022-08-19T10:16:13;25.10;99.90
21570;DHT22;57598;50.888;4.746;2022-08-19T10:18:42;24.90;99.90
21570;DHT22;57598;50.888;4.746;2022-08-19T10:21:11;24.80;99.90
21570;DHT22;57598;50.888;4.746;2022-08-19T10:23:40;24.50;99.90
21570;DHT22;57598;50.888;4.746;2022-08-19T10:26:12;24.70;99.90
21570;DHT22;57598;50.888;4.746;2022-08-19T10:28:39;24.90;99.90
21570;DHT22;57598;50.888;4.746;2022-08-19T10:31:08;24.90;99.90
21570;DHT22;57598;50.888;4.746;2022-08-19T10:33:37;24.80;99.90
21570;DHT22;57598;50.888;4.746;2022-08-19T10:36:07;25.00;99.90
21570;DHT22;57598;50.888;4.746;2022-08-19T10:38:35;25.40;99.90
21570;DHT22;57598;50.888;4.746;2022-08-19T10:41:11;25.60;99.90
21570;DHT22;57598;50.888;4.746;2022-08-19T10:43:38;25.90;99.90
21570;DHT22;57598;50.888;4.746;2022-08-19T10:46:06;25.80;99.90
21570;DHT22;57598;50.888;4.746;2022-08-19T10:48:33;25.70;99.90
21570;DHT22;57598;50.888;4.746;2022-08-19T10:51:00;25.50;99.90
21570;DHT22;57598;50.888;4.746;2022-08-19T10:53:46;25.20;99.90
21570;DHT22;57598;50.888;4.746;2022-08-19T10:56:14;24.90;99.90
21570;DHT22;57598;50.888;4.746;2022-08-19T10:58:59;24.80;99.90
21570;DHT22;57598;50.888;4.746;2022-08-19T11:01:27;24.80;99.90
21570;DHT22;57598;50.888;4.746;2022-08-19T11:03:55;25.00;99.90
21570;DHT22;57598;50.888;4.746;2022-08-19T11:06:23;25.60;99.90
21570;DHT22;57598;50.888;4.746;2022-08-19T11:08:52;25.80;99.90
21570;DHT22;57598;50.888;4.746;2022-08-19T11:11:20;25.90;99.90
21570;DHT22;57598;50.888;4.746;2022-08-19T11:13:48;25.80;99.90
21570;DHT22;57598;50.888;4.746;2022-08-19T11:16:17;26.00;99.90
21570;DHT22;57598;50.888;4.746;2022-08-19T11:18:47;26.00;99.90
21570;DHT22;57598;50.888;4.746;2022-08-19T11:21:17;25.80;99.90
21570;DHT22;57598;50.888;4.746;2022-08-19T11:23:45;25.50;99.90
21570;DHT22;57598;50.888;4.746;2022-08-19T11:26:15;25.40;99.90
21570;DHT22;57598;50.888;4.746;2022-08-19T11:28:43;25.40;99.90
21570;DHT22;57598;50.888;4.746;2022-08-19T11:31:11;25.40;99.90
21570;DHT22;57598;50.888;4.746;2022-08-19T11:33:38;25.20;99.90
21570;DHT22;57598;50.888;4.746;2022-08-19T11:36:05;25.30;99.90
21570;DHT22;57598;50.888;4.746;2022-08-19T11:38:33;25.40;99.90
21570;DHT22;57598;50.888;4.746;2022-08-19T11:41:03;25.40;99.90
21570;DHT22;57598;50.888;4.746;2022-08-19T11:43:32;25.30;99.90
21570;DHT22;57598;50.888;4.746;2022-08-19T11:45:59;25.40;99.90
21570;DHT22;57598;50.888;4.746;2022-08-19T11:48:26;25.30;99.90
21570;DHT22;57598;50.888;4.746;2022-08-19T11:50:53;25.40;99.90
21570;DHT22;57598;50.888;4.746;2022-08-19T11:53:22;25.30;99.90
21570;DHT22;57598;50.888;4.746;2022-08-19T11:55:50;24.90;99.90
21570;DHT22;57598;50.888;4.746;2022-08-19T11:58:21;24.70;99.90
21570;DHT22;57598;50.888;4.746;2022-08-19T12:00:51;24.80;99.90
21570;DHT22;57598;50.888;4.746;2022-08-19T12:03:18;24.80;99.90
21570;DHT22;57598;50.888;4.746;2022-08-19T12:05:46;24.80;99.90
21570;DHT22;57598;50.888;4.746;2022-08-19T12:08:13;24.80;99.90
21570;DHT22;57598;50.888;4.746;2022-08-19T12:10:41;25.00;99.90
21570;DHT22;57598;50.888;4.746;2022-08-19T12:13:09;25.20;99.90
21570;DHT22;57598;50.888;4.746;2022-08-19T12:15:37;25.40;99.90
21570;DHT22;57598;50.888;4.746;2022-08-19T12:18:08;25.50;99.90
21570;DHT22;57598;50.888;4.746;2022-08-19T12:20:37;25.20;99.90
21570;DHT22;57598;50.888;4.746;2022-08-19T12:23:05;25.10;99.90
21570;DHT22;57598;50.888;4.746;2022-08-19T12:25:32;25.10;99.90
21570;DHT22;57598;50.888;4.746;2022-08-19T12:28:00;24.90;99.90
21570;DHT22;57598;50.888;4.746;2022-08-19T12:30:27;24.40;99.90
21570;DHT22;57598;50.888;4.746;2022-08-19T12:32:54;24.30;99.90
21570;DHT22;57598;50.888;4.746;2022-08-19T12:35:23;24.10;99.90
21570;DHT22;57598;50.888;4.746;2022-08-19T12:37:49;24.10;99.90
21570;DHT22;57598;50.888;4.746;2022-08-19T12:40:16;24.30;99.90
21570;DHT22;57598;50.888;4.746;2022-08-19T12:42:44;24.70;99.90
21570;DHT22;57598;50.888;4.746;2022-08-19T12:45:12;24.90;99.90
21570;DHT22;57598;50.888;4.746;2022-08-19T12:47:40;25.00;99.90
21570;DHT22;57598;50.888;4.746;2022-08-19T12:50:07;25.20;99.90
21570;DHT22;57598;50.888;4.746;2022-08-19T12:52:36;25.50;99.90
21570;DHT22;57598;50.888;4.746;2022-08-19T12:55:05;25.60;99.90
21570;DHT22;57598;50.888;4.746;2022-08-19T12:57:32;25.70;99.90
21570;DHT22;57598;50.888;4.746;2022-08-19T13:00:04;25.90;99.90
21570;DHT22;57598;50.888;4.746;2022-08-19T13:02:34;26.20;99.90
21570;DHT22;57598;50.888;4.746;2022-08-19T13:05:02;26.30;99.90
21570;DHT22;57598;50.888;4.746;2022-08-19T13:07:29;26.60;99.90
21570;DHT22;57598;50.888;4.746;2022-08-19T13:09:59;27.00;99.90
21570;DHT22;57598;50.888;4.746;2022-08-19T13:12:26;27.40;99.90
21570;DHT22;57598;50.888;4.746;2022-08-19T13:14:54;27.50;99.90
21570;DHT22;57598;50.888;4.746;2022-08-19T13:17:21;27.70;99.90
21570;DHT22;57598;50.888;4.746;2022-08-19T13:19:49;27.80;99.90
21570;DHT22;57598;50.888;4.746;2022-08-19T13:22:17;28.40;99.90
21570;DHT22;57598;50.888;4.746;2022-08-19T13:24:44;28.60;99.90
21570;DHT22;57598;50.888;4.746;2022-08-19T13:27:13;28.10;99.90
21570;DHT22;57598;50.888;4.746;2022-08-19T13:29:40;28.10;99.90
21570;DHT22;57598;50.888;4.746;2022-08-19T13:32:24;28.30;99.90
21570;DHT22;57598;50.888;4.746;2022-08-19T13:35:09;28.90;99.90
21570;DHT22;57598;50.888;4.746;2022-08-19T13:37:36;28.80;99.10
21570;DHT22;57598;50.888;4.746;2022-08-19T13:40:11;28.70;99.80
21570;DHT22;57598;50.888;4.746;2022-08-19T13:42:42;28.60;99.90
21570;DHT22;57598;50.888;4.746;2022-08-19T13:45:10;28.30;99.90
21570;DHT22;57598;50.888;4.746;2022-08-19T13:47:37;27.80;99.90
21570;DHT22;57598;50.888;4.746;2022-08-19T13:50:10;27.60;99.90
21570;DHT22;57598;50.888;4.746;2022-08-19T13:52:38;27.20;99.90
21570;DHT22;57598;50.888;4.746;2022-08-19T13:55:06;27.10;99.90
21570;DHT22;57598;50.888;4.746;2022-08-19T13:57:33;27.30;99.90
21570;DHT22;57598;50.888;4.746;2022-08-19T14:00:04;27.90;99.90
21570;DHT22;57598;50.888;4.746;2022-08-19T14:02:31;28.50;99.60
21570;DHT22;57598;50.888;4.746;2022-08-19T14:04:58;28.50;98.50
21570;DHT22;57598;50.888;4.746;2022-08-19T14:07:25;28.20;98.80
21570;DHT22;57598;50.888;4.746;2022-08-19T14:09:52;27.80;99.50
21570;DHT22;57598;50.888;4.746;2022-08-19T14:12:19;27.50;99.60
21570;DHT22;57598;50.888;4.746;2022-08-19T14:14:47;27.20;99.80
21570;DHT22;57598;50.888;4.746;2022-08-19T14:17:15;27.10;99.90
21570;DHT22;57598;50.888;4.746;2022-08-19T14:19:42;27.30;99.90
21570;DHT22;57598;50.888;4.746;2022-08-19T14:22:09;27.10;99.90
21570;DHT22;57598;50.888;4.746;2022-08-19T14:24:37;26.90;99.90
21570;DHT22;57598;50.888;4.746;2022-08-19T14:27:05;26.60;99.90
21570;DHT22;57598;50.888;4.746;2022-08-19T14:29:32;26.60;99.90
21570;DHT22;57598;50.888;4.746;2022-08-19T14:31:59;26.50;99.90
21570;DHT22;57598;50.888;4.746;2022-08-19T14:34:28;26.60;99.90
21570;DHT22;57598;50.888;4.746;2022-08-19T14:36:57;26.70;99.90
21570;DHT22;57598;50.888;4.746;2022-08-19T14:39:24;26.80;99.90
21570;DHT22;57598;50.888;4.746;2022-08-19T14:41:51;27.00;99.90
21570;DHT22;57598;50.888;4.746;2022-08-19T14:44:18;27.30;99.50
21570;DHT22;57598;50.888;4.746;2022-08-19T14:46:45;27.30;99.90
21570;DHT22;57598;50.888;4.746;2022-08-19T14:49:12;27.30;99.70
21570;DHT22;57598;50.888;4.746;2022-08-19T14:51:40;27.40;99.80
21570;DHT22;57598;50.888;4.746;2022-08-19T14:54:07;27.60;99.20
21570;DHT22;57598;50.888;4.746;2022-08-19T14:56:34;27.50;98.80
21570;DHT22;57598;50.888;4.746;2022-08-19T14:59:01;27.10;99.80
21570;DHT22;57598;50.888;4.746;2022-08-19T15:01:28;26.90;99.90
21570;DHT22;57598;50.888;4.746;2022-08-19T15:03:55;26.80;99.90
21570;DHT22;57598;50.888;4.746;2022-08-19T15:06:23;26.60;99.90
21570;DHT22;57598;50.888;4.746;2022-08-19T15:08:52;26.30;99.90
21570;DHT22;57598;50.888;4.746;2022-08-19T15:11:22;26.10;99.90
21570;DHT22;57598;50.888;4.746;2022-08-19T15:13:50;26.00;99.90
21570;DHT22;57598;50.888;4.746;2022-08-19T15:16:19;25.90;99.90
21570;DHT22;57598;50.888;4.746;2022-08-19T15:18:49;25.80;99.90
21570;DHT22;57598;50.888;4.746;2022-08-19T15:21:17;25.60;99.90
21570;DHT22;57598;50.888;4.746;2022-08-19T15:23:44;25.30;99.90
21570;DHT22;57598;50.888;4.746;2022-08-19T15:26:13;24.90;99.90
21570;DHT22;57598;50.888;4.746;2022-08-19T15:28:40;24.90;99.90
21570;DHT22;57598;50.888;4.746;2022-08-19T15:31:08;24.80;99.90
21570;DHT22;57598;50.888;4.746;2022-08-19T15:33:36;24.90;99.90
21570;DHT22;57598;50.888;4.746;2022-08-19T15:36:03;25.00;99.90
21570;DHT22;57598;50.888;4.746;2022-08-19T15:38:31;25.10;99.90
21570;DHT22;57598;50.888;4.746;2022-08-19T15:40:59;25.20;99.90